Stormwatcher's Retreat Logo




                  Temp     Hi    Low   Out    Dew  Wind  Wind   Wind    Hi    Hi   Wind   Heat    THW   THSW                Rain  Solar   Solar Hi Solar   UV    UV    Hi     Heat    Cool    In     In    In     In     In   In Air          Wind  Wind    ISS   Arc.
  Date    Time     Out   Temp   Temp   Hum    Pt. Speed   Dir    Run Speed   Dir  Chill  Index  Index  Index   Bar    Rain  Rate   Rad.  Energy    Rad.  Index  Dose   UV     D-D     D-D    Temp   Hum    Dew   Heat    EMC Density     ET   Samp   Tx   Recept  Int.
------------------------------------------------------------------------------------------------------------------------------------------------------------------------------------------------------------------------------------------------------------------------
 9/28/22 12:10a   57.2   57.2   56.7    97   56.4   6.0     S   1.00  11.0   SSE   56.2   57.5   56.5   54.3  29.989  0.00  0.00     0     0.00      0     0.0  0.00   0.0   0.054   0.000   71.4    56   54.9   70.7  10.32  .0738    0.000   203    7    100.0   10 
 9/28/22 12:20a   57.7   57.7   57.2    97   56.9   4.0     S   0.67  10.0   SSE   57.7   58.0   58.0   55.8  29.985  0.00  0.00     0     0.00      0     0.0  0.00   0.0   0.051   0.000   71.4    56   54.9   70.7  10.32  .0738    0.000   205    7    100.0   10 
 9/28/22 12:30a   57.7   57.7   57.5    97   56.9   4.0     S   0.67  11.0   SSE   57.7   58.0   58.0   55.8  29.978  0.00  0.00     0     0.00      0     0.0  0.00   0.0   0.051   0.000   71.4    56   54.9   70.7  10.32  .0738    0.000   203    7    100.0   10 
 9/28/22 12:40a   57.8   57.8   57.6    96   56.7   5.0     S   0.83  12.0   SSE   57.4   58.1   57.7   55.5  29.971  0.00  0.00     0     0.00      0     0.0  0.00   0.0   0.050   0.000   71.4    56   54.9   70.7  10.32  .0738    0.000   201    7    100.0   10 
 9/28/22 12:50a   58.0   58.0   57.8    95   56.6   5.0     S   0.83  12.0   SSE   57.6   58.3   57.9   55.7  29.969  0.00  0.00     0     0.00      0     0.0  0.00   0.0   0.049   0.000   71.3    56   54.8   70.5  10.32  .0738    0.000   202    7    100.0   10 
 9/28/22  1:00a   57.9   58.0   57.9    95   56.5   1.0   SSE   0.17   5.0   SSE   57.9   58.2   58.2   56.0  29.963  0.00  0.00     0     0.00      0     0.0  0.00   0.0   0.049   0.000   71.3    56   54.8   70.5  10.32  .0738    0.000   204    7    100.0   10 
 9/28/22  1:10a   57.6   57.9   57.5    95   56.2   1.0     E   0.17   5.0    NE   57.6   57.9   57.9   55.7  29.957  0.00  0.00     0     0.00      0     0.0  0.00   0.0   0.051   0.000   71.3    56   54.8   70.5  10.32  .0738    0.000   204    7    100.0   10 
 9/28/22  1:20a   57.6   57.7   57.5    95   56.2   2.0     S   0.33   5.0   SSE   57.6   57.9   57.9   55.7  29.965  0.00  0.00     0     0.00      0     0.0  0.00   0.0   0.051   0.000   71.3    56   54.8   70.5  10.32  .0738    0.000   203    7    100.0   10 
 9/28/22  1:30a   58.0   58.3   57.5    95   56.6   3.0     S   0.50   6.0   SSW   58.0   58.3   58.3   56.1  29.966  0.00  0.00     0     0.00      0     0.0  0.00   0.0   0.049   0.000   71.3    56   54.8   70.5  10.32  .0738    0.000   202    7    100.0   10 
 9/28/22  1:40a   57.1   58.0   57.1    95   55.7   1.0     S   0.17   6.0     S   57.1   57.3   57.3   55.0  29.964  0.00  0.00     0     0.00      0     0.0  0.00   0.0   0.055   0.000   71.3    56   54.8   70.5  10.32  .0738    0.000   204    7    100.0   10 
 9/28/22  1:50a   56.4   57.1   56.4    95   55.0   2.0     S   0.33   5.0   SSE   56.4   56.6   56.6   54.3  29.965  0.00  0.00     0     0.00      0     0.0  0.00   0.0   0.060   0.000   71.2    56   54.7   70.4  10.33  .0738    0.000   204    7    100.0   10 
 9/28/22  2:00a   56.6   56.6   56.3    95   55.2   3.0     S   0.50   6.0     S   56.6   56.8   56.8   54.5  29.967  0.00  0.00     0     0.00      0     0.0  0.00   0.0   0.058   0.000   71.2    57   55.2   70.5  10.50  .0738    0.000   200    7    100.0   10 
 9/28/22  2:10a   56.0   56.6   56.0    95   54.6   5.0     S   0.83   9.0    SE   55.3   56.2   55.5   53.2  29.970  0.00  0.00     0     0.00      0     0.0  0.00   0.0   0.063   0.000   71.2    57   55.2   70.5  10.50  .0738    0.000   201    7    100.0   10 
 9/28/22  2:20a   56.1   56.1   55.8    96   55.0   5.0     S   0.83   9.0     S   55.4   56.3   55.6   53.3  29.969  0.00  0.00     0     0.00      0     0.0  0.00   0.0   0.062   0.000   71.2    57   55.2   70.5  10.50  .0738    0.000   205    7    100.0   10 
 9/28/22  2:30a   56.4   56.5   56.1    96   55.3   1.0     S   0.17   6.0     S   56.4   56.6   56.6   54.3  29.966  0.00  0.00     0     0.00      0     0.0  0.00   0.0   0.060   0.000   71.2    57   55.2   70.5  10.50  .0738    0.000   204    7    100.0   10 
 9/28/22  2:40a   56.2   56.5   56.2    95   54.8   2.0     S   0.33   7.0   SSW   56.2   56.4   56.4   54.1  29.965  0.00  0.00     0     0.00      0     0.0  0.00   0.0   0.061   0.000   71.2    57   55.2   70.5  10.50  .0738    0.000   202    7    100.0   10 
 9/28/22  2:50a   56.1   56.2   56.1    96   55.0   2.0     S   0.33   5.0     S   56.1   56.3   56.3   54.0  29.961  0.00  0.00     0     0.00      0     0.0  0.00   0.0   0.062   0.000   71.2    57   55.2   70.5  10.50  .0738    0.000   202    7    100.0   10 
 9/28/22  3:00a   56.1   56.3   56.0    96   55.0   3.0     S   0.50   6.0   SSW   56.1   56.3   56.3   54.0  29.957  0.00  0.00     0     0.00      0     0.0  0.00   0.0   0.062   0.000   71.1    57   55.1   70.3  10.51  .0738    0.000   204    7    100.0   10 
 9/28/22  3:10a   55.7   56.1   55.7    96   54.6   4.0     S   0.67   6.0     S   55.4   55.9   55.6   53.3  29.963  0.00  0.00     0     0.00      0     0.0  0.00   0.0   0.065   0.000   71.1    57   55.1   70.3  10.51  .0738    0.000   204    7    100.0   10 
 9/28/22  3:20a   55.4   55.7   55.3    96   54.3   4.0     S   0.67   8.0   SSE   55.1   55.6   55.3   53.0  29.968  0.00  0.00     0     0.00      0     0.0  0.00   0.0   0.067   0.000   71.1    57   55.1   70.3  10.51  .0738    0.000   203    7    100.0   10 
 9/28/22  3:30a   55.5   55.5   55.3    97   54.7   4.0     S   0.67  11.0   SSE   55.2   55.8   55.5   53.2  29.964  0.00  0.00     0     0.00      0     0.0  0.00   0.0   0.066   0.000   71.1    57   55.1   70.3  10.51  .0738    0.000   204    7    100.0   10 
 9/28/22  3:40a   55.6   55.8   55.5    97   54.8   5.0     S   0.83  10.0    SE   54.8   55.9   55.1   52.8  29.963  0.01  0.00     0     0.00      0     0.0  0.00   0.0   0.065   0.000   71.0    57   55.0   70.2  10.51  .0738    0.000   203    7    100.0   10 
 9/28/22  3:50a   55.9   56.0   55.5    97   55.1   4.0     S   0.67   8.0   SSE   55.7   56.2   56.0   53.7  29.955  0.01  0.00     0     0.00      0     0.0  0.00   0.0   0.063   0.000   71.0    57   55.0   70.2  10.51  .0738    0.000   204    7    100.0   10 
 9/28/22  4:00a   56.0   56.0   55.7    97   55.2   2.0     S   0.33   6.0     S   56.0   56.3   56.3   54.0  29.959  0.02  0.16     0     0.00      0     0.0  0.00   0.0   0.063   0.000   71.0    57   55.0   70.2  10.51  .0738    0.000   202    7    100.0   10 
 9/28/22  4:10a   56.5   56.5   55.9    98   55.9   3.0     S   0.50   7.0     S   56.5   56.8   56.8   54.5  29.960  0.03  0.30     0     0.00      0     0.0  0.00   0.0   0.059   0.000   70.9    57   54.9   70.1  10.51  .0738    0.000   204    7    100.0   10 
 9/28/22  4:20a   58.3   58.3   56.5    98   57.7   4.0     S   0.67  10.0   SSE   58.3   58.7   58.7   56.5  29.963  0.02  0.29     0     0.00      0     0.0  0.00   0.0   0.047   0.000   71.0    57   55.0   70.2  10.51  .0738    0.000   204    7    100.0   10 
 9/28/22  4:30a   58.9   58.9   58.4    98   58.3   5.0     S   0.83  12.0     S   58.7   59.4   59.2   57.1  29.959  0.02  0.18     0     0.00      0     0.0  0.00   0.0   0.042   0.000   70.9    57   54.9   70.1  10.51  .0738    0.000   202    7    100.0   10 
 9/28/22  4:40a   59.2   59.2   58.9    98   58.6   7.0     S   1.17  14.0   SSE   58.2   59.7   58.7   56.6  29.957  0.00  0.05     0     0.00      0     0.0  0.00   0.0   0.040   0.000   70.9    57   54.9   70.1  10.51  .0738    0.000   202    7    100.0   10 
 9/28/22  4:50a   59.2   59.3   59.1    97   58.3   8.0     S   1.33  15.0   SSW   57.5   59.6   57.9   55.9  29.959  0.00  0.00     0     0.00      0     0.0  0.00   0.0   0.040   0.000   70.9    57   54.9   70.1  10.51  .0738    0.000   205    7    100.0   10 
 9/28/22  5:00a   59.3   59.4   59.2    97   58.4   8.0     S   1.33  16.0     S   57.7   59.8   58.2   56.2  29.958  0.00  0.00     0     0.00      0     0.0  0.00   0.0   0.040   0.000   70.9    57   54.9   70.1  10.51  .0738    0.000   204    7    100.0   10 
 9/28/22  5:10a   59.4   59.4   59.1    97   58.5   8.0     S   1.33  20.0   SSE   57.8   59.9   58.3   56.3  29.959  0.00  0.00     0     0.00      0     0.0  0.00   0.0   0.039   0.000   70.9    57   54.9   70.1  10.51  .0738    0.000   202    7    100.0   10 
 9/28/22  5:20a   59.5   59.5   59.4    97   58.6   9.0     S   1.50  18.0   SSE   57.1   60.0   57.6   55.7  29.957  0.00  0.00     0     0.00      0     0.0  0.00   0.0   0.038   0.000   70.9    57   54.9   70.1  10.51  .0738    0.000   204    7    100.0   10 
 9/28/22  5:30a   59.7   59.8   59.5    97   58.8  10.0     S   1.67  19.0     S   56.6   60.2   57.1   55.3  29.957  0.00  0.00     0     0.00      0     0.0  0.00   0.0   0.037   0.000   70.9    57   54.9   70.1  10.51  .0738    0.000   204    7    100.0   10 
 9/28/22  5:40a   59.7   59.8   59.5    97   58.8  10.0     S   1.67  19.0   SSE   56.6   60.2   57.1   55.3  29.957  0.00  0.00     0     0.00      0     0.0  0.00   0.0   0.037   0.000   70.9    57   54.9   70.1  10.51  .0738    0.000   202    7    100.0   10 
 9/28/22  5:50a   59.7   59.7   59.5    96   58.6   9.0     S   1.50  17.0     S   57.3   60.1   57.7   55.8  29.959  0.00  0.00     0     0.00      0     0.0  0.00   0.0   0.037   0.000   70.8    57   54.8   69.9  10.52  .0738    0.000   204    7    100.0   10 
 9/28/22  6:00a   59.6   59.7   59.6    96   58.5   9.0     S   1.50  17.0   SSE   57.2   60.0   57.6   55.7  29.965  0.00  0.00     0     0.00      0     0.0  0.00   0.0   0.038   0.000   70.8    57   54.8   69.9  10.52  .0738    0.000   202    7    100.0   10 
 9/28/22  6:10a   59.4   59.6   59.4    96   58.3  10.0     S   1.67  22.0   SSE   56.3   59.8   56.7   54.9  29.971  0.00  0.00     0     0.00      0     0.0  0.00   0.0   0.039   0.000   70.8    57   54.8   69.9  10.52  .0739    0.000   201    7    100.0   10 
 9/28/22  6:20a   59.2   59.4   59.1    96   58.1  11.0     S   1.83  18.0   SSE   55.4   59.6   55.8   54.0  29.973  0.00  0.00     0     0.00      0     0.0  0.00   0.0   0.040   0.000   70.8    57   54.8   69.9  10.52  .0739    0.000   202    7    100.0   10 
 9/28/22  6:30a   59.0   59.2   58.9    97   58.2  12.0     S   2.00  18.0   SSE   54.6   59.4   55.0   53.3  29.980  0.00  0.00     0     0.00      0     0.0  0.00   0.0   0.042   0.000   70.7    57   54.7   69.8  10.52  .0739    0.000   202    7    100.0   10 
 9/28/22  6:40a   58.9   59.0   58.8    97   58.1  12.0     S   2.00  23.0     S   54.5   59.3   54.9   53.2  29.981  0.01  0.00     0     0.00      0     0.0  0.00   0.0   0.042   0.000   70.7    57   54.7   69.8  10.52  .0739    0.000   202    7    100.0   10 
 9/28/22  6:50a   58.7   59.1   58.7    97   57.9  12.0     S   2.00  21.0   SSE   54.3   59.1   54.7   52.9  29.984  0.00  0.00     0     0.00      0     0.0  0.00   0.0   0.044   0.000   70.7    57   54.7   69.8  10.52  .0739    0.000   202    7    100.0   10 
 9/28/22  7:00a   58.6   58.8   58.5    97   57.8  13.0     S   2.17  21.0   SSE   53.7   59.0   54.1   52.4  29.983  0.00  0.00     0     0.00      0     0.0  0.00   0.0   0.044   0.000   70.7    57   54.7   69.8  10.52  .0739    0.000   203    7    100.0   10 
 9/28/22  7:10a   58.4   58.7   58.3    97   57.6  13.0     S   2.17  21.0   SSE   53.4   58.8   53.8   52.1  29.981  0.00  0.00     0     0.00      0     0.0  0.00   0.0   0.046   0.000   70.7    57   54.7   69.8  10.52  .0739    0.000   204    7    100.0   10 
 9/28/22  7:20a   58.3   58.6   58.3    97   57.5  13.0     S   2.17  24.0     S   53.3   58.7   53.7   52.0  29.979  0.00  0.00     0     0.00      0     0.0  0.00   0.0   0.047   0.000   70.7    57   54.7   69.8  10.52  .0739    0.000   203    7    100.0   10 
 9/28/22  7:30a   58.2   58.4   58.2    97   57.4  11.0     S   1.83  18.0     S   54.2   58.6   54.6   52.8  29.979  0.00  0.00     3     0.04      5     0.0  0.00   0.0   0.047   0.000   70.7    57   54.7   69.8  10.52  .0739    0.000   202    7    100.0   10 
 9/28/22  7:40a   58.4   58.5   58.2    97   57.6  14.0     S   2.33  27.0     S   53.1   58.8   53.5   52.0  29.982  0.00  0.00     5     0.07      7     0.0  0.00   0.0   0.046   0.000   70.7    57   54.7   69.8  10.52  .0739    0.000   204    7    100.0   10 
 9/28/22  7:50a   58.5   58.6   58.4    97   57.7  13.0     S   2.17  22.0     S   53.6   58.9   54.0   52.4  29.980  0.00  0.00     8     0.11     11     0.0  0.00   0.0   0.045   0.000   70.7    57   54.7   69.8  10.52  .0739    0.000   201    7    100.0   10 
 9/28/22  8:00a   58.7   58.8   58.5    97   57.9  12.0     S   2.00  24.0     S   54.3   59.1   54.7   53.6  29.984  0.00  0.00    11     0.16     14     0.0  0.00   0.0   0.044   0.000   70.7    57   54.7   69.8  10.52  .0739    0.000   204    7    100.0   10 
 9/28/22  8:10a   58.5   58.7   58.5    97   57.7  14.0     S   2.33  23.0     S   53.2   58.9   53.6   52.6  29.985  0.00  0.00    11     0.16     14     0.0  0.00   0.0   0.045   0.000   70.6    57   54.6   69.7  10.53  .0739    0.000   204    7    100.0   10 
 9/28/22  8:20a   58.6   58.7   58.4    97   57.8  15.0     S   2.50  25.0   SSE   53.0   59.0   53.4   52.7  29.985  0.00  0.00    19     0.27     25     0.0  0.00   0.0   0.044   0.000   70.6    57   54.6   69.7  10.53  .0739    0.000   204    7    100.0   10 
 9/28/22  8:30a   58.6   58.7   58.5    97   57.8  12.0     S   2.00  23.0     S   54.2   59.0   54.6   54.8  29.987  0.00  0.00    46     0.66     90     0.0  0.00   0.0   0.044   0.000   70.6    57   54.6   69.7  10.53  .0739    0.000   204    7    100.0   10 
 9/28/22  8:40a   57.8   58.7   57.8    96   56.7  12.0     S   2.00  20.0   SSE   53.3   58.1   53.6   54.4  29.990  0.00  0.00    63     0.90     84     0.0  0.00   0.0   0.050   0.000   70.6    57   54.6   69.7  10.53  .0739    0.000   205    7    100.0   10 
 9/28/22  8:50a   58.0   58.0   57.2    98   57.4  11.0     S   1.83  17.0     S   54.0   58.4   54.4   54.5  29.997  0.00  0.00    44     0.63     63     0.0  0.00   0.0   0.049   0.000   70.7    57   54.7   69.8  10.52  .0739    0.000   201    7    100.0   10 
 9/28/22  9:00a   58.8   58.8   58.0    97   58.0  13.0     S   2.17  21.0     S   53.9   59.2   54.3   55.8  29.999  0.00  0.00    90     1.29    107     0.0  0.00   0.0   0.043   0.000   70.7    57   54.7   69.8  10.52  .0739    0.001   202    7    100.0   10 
 9/28/22  9:10a   58.8   58.9   58.7    97   58.0  12.0     S   2.00  20.0   SSE   54.4   59.2   54.8   56.1  30.003  0.00  0.00    87     1.25    130     0.1  0.01   0.5   0.043   0.000   70.7    57   54.7   69.8  10.52  .0740    0.000   204    7    100.0   10 
 9/28/22  9:20a   58.9   59.0   58.7    97   58.1  11.0     S   1.83  23.0   SSE   55.1   59.3   55.5   57.4  30.007  0.00  0.00   104     1.49    121     0.5  0.04   0.6   0.042   0.000   70.7    57   54.7   69.8  10.52  .0740    0.000   205    7    100.0   10 
 9/28/22  9:30a   59.3   59.3   58.9    97   58.4   9.0     S   1.50  19.0   SSE   56.9   59.8   57.4   60.9  30.008  0.00  0.00   156     2.24    195     0.7  0.05   0.8   0.040   0.000   70.8    57   54.8   69.9  10.52  .0739    0.000   204    7    100.0   10 
 9/28/22  9:40a   59.5   59.5   59.2    96   58.4  11.0     S   1.83  20.0   SSW   55.8   59.9   56.2   60.6  30.013  0.00  0.00   207     2.97    264     0.8  0.06   0.8   0.038   0.000   70.8    57   54.8   69.9  10.52  .0740    0.000   204    7    100.0   10 
 9/28/22  9:50a   59.8   59.8   59.5    96   58.7  10.0     S   1.67  19.0     S   56.8   60.2   57.2   62.7  30.015  0.00  0.00   249     3.57    339     0.9  0.06   1.1   0.036   0.000   70.8    57   54.8   69.9  10.52  .0740    0.000   202    7    100.0   10 
 9/28/22 10:00a   60.0   60.1   59.8    96   58.9   9.0     S   1.50  18.0   SSE   57.7   60.4   58.1   63.1  30.022  0.00  0.00   230     3.30    283     1.0  0.07   1.1   0.035   0.000   70.8    57   54.8   69.9  10.52  .0740    0.004   205    7    100.0   10 
 9/28/22 10:10a   60.0   60.1   59.9    96   58.9   9.0     S   1.50  19.0   SSE   57.7   60.4   58.1   60.5  30.019  0.00  0.00   136     1.95    190     0.9  0.06   1.2   0.035   0.000   70.9    57   54.9   70.1  10.51  .0740    0.000   201    7    100.0   10 
 9/28/22 10:20a   60.4   60.4   60.0    95   59.0   7.0     S   1.17  13.0     S   59.7   60.8   60.1   64.2  30.018  0.00  0.00   194     2.78    290     1.3  0.09   1.3   0.032   0.000   70.9    57   54.9   70.1  10.51  .0740    0.000   203    7    100.0   10 
 9/28/22 10:30a   60.3   60.5   60.3    95   58.9   8.0     S   1.33  13.0   SSE   58.9   60.7   59.3   63.3  30.019  0.00  0.00   200     2.87    295     1.2  0.09   1.5   0.033   0.000   70.9    57   54.9   70.1  10.51  .0740    0.000   203    7    100.0   10 
 9/28/22 10:40a   61.0   61.0   60.3    95   59.6   6.0     S   1.00  11.0     S   60.8   61.5   61.3   66.2  30.012  0.00  0.00   228     3.27    297     1.6  0.11   2.2   0.028   0.000   71.0    57   55.0   70.2  10.51  .0739    0.000   203    7    100.0   10 
 9/28/22 10:50a   61.7   61.8   61.0    94   60.0   5.0     S   0.83   9.0   SSE   61.7   62.3   62.3   70.8  30.012  0.00  0.00   389     5.58    461     2.2  0.16   2.6   0.023   0.000   71.1    57   55.1   70.3  10.51  .0739    0.000   203    7    100.0   10 
 9/28/22 11:00a   62.2   62.2   61.8    93   60.2   5.0     S   0.83   9.0   SSE   62.2   62.8   62.8   73.3  30.010  0.00  0.00   521     7.47    664     2.5  0.18   2.8   0.019   0.000   71.1    57   55.1   70.3  10.51  .0739    0.006   204    7    100.0   10 
 9/28/22 11:10a   62.1   62.2   62.0    92   59.7   6.0     S   1.00  11.0   SSE   62.1   62.7   62.7   73.6  30.010  0.00  0.00   578     8.29    719     2.6  0.19   3.0   0.020   0.000   71.2    57   55.2   70.5  10.50  .0739    0.000   204    7    100.0   10 
 9/28/22 11:20a   61.0   62.0   61.0    91   58.4   7.0     S   1.17  17.0   SSE   60.4   61.4   60.8   66.1  30.010  0.00  0.00   269     3.86    309     1.7  0.12   2.4   0.028   0.000   71.3    57   55.3   70.6  10.50  .0739    0.000   203    7    100.0   10 
 9/28/22 11:30a   61.1   61.1   60.2    94   59.4   8.0     S   1.33  16.0   SSE   59.8   61.6   60.3   64.9  30.006  0.00  0.00   251     3.60    334     1.8  0.13   3.1   0.027   0.000   71.4    57   55.4   70.8  10.49  .0738    0.000   202    7    100.0   10 
 9/28/22 11:40a   62.9   62.9   61.1    92   60.5   3.0     S   0.50   8.0     S   62.9   63.6   63.6   74.7  30.004  0.00  0.00   644     9.23    747     3.1  0.22   3.4   0.015   0.000   71.4    57   55.4   70.8  10.49  .0738    0.000   204    7    100.0   10 
 9/28/22 11:50a   62.8   63.0   62.7    91   60.1   5.0     S   0.83  11.0     S   62.8   63.5   63.5   69.6  30.007  0.00  0.00   302     4.33    359     2.1  0.15   2.4   0.015   0.000   71.5    57   55.5   70.9  10.49  .0738    0.000   204    7    100.0   10 
 9/28/22 12:00p   62.5   62.8   62.4    90   59.5   5.0     S   0.83   9.0   SSE   62.5   63.1   63.1   68.6  30.009  0.00  0.00   282     4.04    346     1.9  0.14   2.1   0.017   0.000   71.6    57   55.6   71.1  10.49  .0738    0.008   203    7    100.0   10 
 9/28/22 12:10p   61.4   62.5   61.3    90   58.4   6.0     S   1.00   9.0     S   61.3   61.8   61.7   66.6  30.010  0.00  0.00   263     3.77    313     1.7  0.12   2.1   0.025   0.000   71.6    57   55.6   71.1  10.49  .0738    0.000   203    7    100.0   10 
 9/28/22 12:20p   61.2   61.3   60.2    93   59.2   6.0     S   1.00  10.0     S   61.0   61.7   61.5   67.6  30.010  0.00  0.00   311     4.46    352     2.4  0.17   3.5   0.026   0.000   71.7    57   55.7   71.2  10.48  .0738    0.000   203    7    100.0   10 
 9/28/22 12:30p   61.6   62.2   61.2    89   58.3   8.0     S   1.33  12.0   SSE   60.4   62.0   60.8   67.7  30.010  0.00  0.00   381     5.46    963     2.9  0.21   4.2   0.024   0.000   71.8    57   55.7   71.4  10.48  .0738    0.000   204    7    100.0   10 
 9/28/22 12:40p   59.0   61.5   58.9    93   57.0   9.0     S   1.50  14.0   SSE   56.5   59.3   56.8   63.7  30.017  0.00  0.00   405     5.81    490     2.7  0.19   3.0   0.042   0.000   71.9    57   55.8   71.5  10.47  .0738    0.000   204    7    100.0   10 
 9/28/22 12:50p   59.6   59.6   58.7    95   58.2   9.0     S   1.50  15.0     S   57.2   60.0   57.6   63.0  30.016  0.00  0.00   315     4.52    364     2.2  0.16   2.5   0.038   0.000   71.9    57   55.8   71.5  10.47  .0738    0.000   201    7    100.0   10 
 9/28/22  1:00p   61.0   61.0   59.6    94   59.3  10.0     S   1.67  17.0   SSE   58.1   61.5   58.6   63.5  30.015  0.00  0.00   300     4.30    394     2.0  0.14   2.5   0.028   0.000   72.0    57   55.9   71.7  10.47  .0738    0.008   203    7    100.0   10 
 9/28/22  1:10p   62.2   62.2   61.1    92   59.8   9.0     S   1.50  16.0    SE   60.2   62.8   60.8   65.7  30.011  0.00  0.00   288     4.13    308     1.9  0.14   2.0   0.019   0.000   72.0    57   55.9   71.7  10.47  .0737    0.000   204    7    100.0   10 
 9/28/22  1:20p   62.7   62.8   62.2    90   59.7   9.0     S   1.50  14.0   SSE   60.8   63.3   61.4   66.0  30.009  0.00  0.00   273     3.91    297     1.8  0.13   1.9   0.016   0.000   72.0    57   55.9   71.7  10.47  .0737    0.000   202    7    100.0   10 
 9/28/22  1:30p   62.3   62.7   62.0    90   59.3  11.0     S   1.83  18.0     S   59.0   62.9   59.6   65.3  30.009  0.00  0.00   351     5.03    475     2.3  0.16   2.7   0.019   0.000   72.0    57   55.9   71.7  10.47  .0737    0.000   203    7    100.0   10 
 9/28/22  1:40p   60.3   62.3   60.3    92   58.0  12.0     S   2.00  20.0   SSE   56.1   60.7   56.5   64.3  30.008  0.00  0.00   525     7.53    788     3.0  0.21   3.8   0.033   0.000   72.1    57   56.0   71.8  10.47  .0737    0.000   202    7    100.0   10 
 9/28/22  1:50p   60.6   60.9   60.4    91   58.0  13.0     S   2.17  20.0     S   56.0   61.0   56.4   62.9  30.011  0.00  0.00   437     6.26    693     2.7  0.19   3.1   0.031   0.000   72.1    57   56.0   71.8  10.47  .0737    0.000   203    7    100.0   10 
 9/28/22  2:00p   61.7   61.7   60.5    91   59.0  14.0     S   2.33  24.0   SSE   56.8   62.2   57.3   65.0  30.006  0.00  0.00   552     7.91    608     3.0  0.21   3.6   0.023   0.000   72.2    57   56.1   72.0  10.46  .0737    0.009   203    7    100.0   10 
 9/28/22  2:10p   62.5   62.6   61.8    89   59.2  16.0     S   2.67  26.0   SSE   57.1   63.1   57.7   63.9  30.001  0.00  0.00   453     6.49    554     2.7  0.19   3.4   0.017   0.000   72.3    57   56.2   72.1  10.46  .0737    0.000   202    7    100.0   10 
 9/28/22  2:20p   62.7   62.7   62.3    88   59.1  18.0     S   3.00  32.0   SSE   56.7   63.3   57.3   61.9  30.003  0.00  0.00   349     5.00    427     2.6  0.19   3.4   0.016   0.000   72.3    57   56.2   72.1  10.46  .0737    0.000   203    7    100.0   10 
 9/28/22  2:30p   63.0   63.0   62.7    89   59.7  16.0     S   2.67  26.0   SSE   57.6   63.7   58.3   63.0  30.002  0.00  0.00   336     4.82    401     2.3  0.16   2.4   0.014   0.000   72.4    57   56.3   72.3  10.45  .0737    0.000   204    7    100.0   10 
 9/28/22  2:40p   63.1   63.2   63.0    89   59.8  17.0     S   2.83  34.0     S   57.4   63.8   58.1   62.2  30.001  0.00  0.00   305     4.37    385     2.2  0.16   2.7   0.013   0.000   72.5    57   56.4   72.4  10.45  .0736    0.000   201    7    100.0   10 
 9/28/22  2:50p   63.0   63.2   62.9    89   59.7  17.0     S   2.83  35.0   ESE   57.3   63.7   58.0   61.0  30.004  0.00  0.00   226     3.24    258     1.6  0.11   1.7   0.014   0.000   72.5    57   56.4   72.4  10.45  .0736    0.000   202    7    100.0   10 
 9/28/22  3:00p   62.7   63.0   62.7    90   59.7  18.0     S   3.00  37.0   SSE   56.7   63.3   57.3   59.8  30.005  0.00  0.00   201     2.88    264     1.3  0.09   1.6   0.016   0.000   72.5    57   56.4   72.4  10.45  .0736    0.009   204    7    100.0   10 
 9/28/22  3:10p   62.6   62.7   62.5    90   59.6  18.0     S   3.00  30.0   SSE   56.6   63.2   57.2   58.7  30.012  0.00  0.00   143     2.05    156     0.9  0.06   1.0   0.017   0.000   72.4    57   56.3   72.3  10.45  .0737    0.000   204    7    100.0   10 
 9/28/22  3:20p   62.7   62.8   62.6    90   59.7  16.0     S   2.67  29.0   SSE   57.3   63.3   57.9   59.4  30.009  0.00  0.00   137     1.96    142     0.8  0.06   0.8   0.016   0.000   72.4    57   56.3   72.3  10.45  .0737    0.000   202    7    100.0   10 
 9/28/22  3:30p   62.6   62.7   62.5    90   59.6  17.0     S   2.83  28.0   SSE   56.9   63.2   57.5   59.3  30.009  0.00  0.00   153     2.19    172     0.9  0.06   1.0   0.017   0.000   72.4    57   56.3   72.3  10.45  .0737    0.000   203    7    100.0   10 
 9/28/22  3:40p   63.0   63.0   62.5    90   60.0  16.0     S   2.67  32.0     S   57.6   63.7   58.3   60.3  30.006  0.00  0.00   153     2.19    169     0.9  0.06   1.0   0.014   0.000   72.4    57   56.3   72.3  10.45  .0737    0.000   203    7    100.0   10 
 9/28/22  3:50p   62.8   63.0   62.7    89   59.5  15.0     S   2.50  29.0     S   57.8   63.4   58.4   59.7  30.004  0.00  0.00   120     1.72    144     0.6  0.04   0.8   0.015   0.000   72.4    57   56.3   72.3  10.45  .0737    0.000   203    7    100.0   10 
 9/28/22  4:00p   62.9   63.1   62.8    88   59.3  15.0     S   2.50  31.0    SW   57.9   63.5   58.5   59.1  30.010  0.00  0.00    84     1.20    104     0.3  0.02   0.6   0.015   0.000   72.4    57   56.3   72.3  10.45  .0737    0.004   203    7    100.0   10 
 9/28/22  4:10p   63.1   63.2   62.8    88   59.5  15.0     S   2.50  31.0   SSE   58.1   63.7   58.7   59.5  30.006  0.00  0.00    92     1.32    100     0.5  0.04   0.5   0.013   0.000   72.4    57   56.3   72.3  10.45  .0737    0.000   203    7    100.0   10 
 9/28/22  4:20p   63.1   63.2   63.1    88   59.5  11.0     S   1.83  20.0   SSE   59.9   63.7   60.5   60.2  30.011  0.00  0.00    42     0.60     74     0.0  0.00   0.0   0.013   0.000   72.4    57   56.3   72.3  10.45  .0737    0.000   205    7    100.0   10 
 9/28/22  4:30p   63.0   63.1   63.0    88   59.4  13.0     S   2.17  25.0   SSW   58.7   63.6   59.3   58.9  30.007  0.00  0.00    38     0.54     44     0.0  0.00   0.0   0.014   0.000   72.3    57   56.2   72.1  10.46  .0737    0.000   202    7    100.0   10 
 9/28/22  4:40p   61.9   63.0   61.8    90   58.9  16.0     S   2.67  32.0   SSE   56.4   62.4   56.9   56.2  30.011  0.00  0.00    28     0.40     37     0.0  0.00   0.0   0.022   0.000   72.3    57   56.2   72.1  10.46  .0737    0.000   203    7    100.0   10 
 9/28/22  4:50p   61.4   61.8   61.4    92   59.1  18.0     S   3.00  32.0   SSE   55.2   61.9   55.7   55.8  30.009  0.00  0.00    55     0.79     70     0.0  0.00   0.0   0.025   0.000   72.3    57   56.2   72.1  10.46  .0737    0.000   201    7    100.0   10 
 9/28/22  5:00p   61.6   61.7   61.3    93   59.6  12.0     S   2.00  23.0   SSE   57.6   62.2   58.2   58.4  30.011  0.01  0.00    53     0.76     74     0.0  0.00   0.0   0.024   0.000   72.3    57   56.2   72.1  10.46  .0737    0.002   202    7    100.0   10 
 9/28/22  5:10p   61.1   61.6   61.1    92   58.8  15.0     S   2.50  32.0     S   55.8   61.6   56.3   55.6  30.012  0.00  0.00    22     0.32     26     0.0  0.00   0.0   0.027   0.000   72.3    57   56.2   72.1  10.46  .0737    0.000   203    7    100.0   10 
 9/28/22  5:20p   60.6   61.0   60.5    93   58.6  12.0     S   2.00  32.0   SSE   56.5   61.0   56.9   57.0  30.007  0.03  0.19    50     0.72     62     0.0  0.00   0.0   0.031   0.000   72.3    57   56.2   72.1  10.46  .0737    0.000   201    7    100.0   10 
 9/28/22  5:30p   60.9   60.9   60.4    93   58.9  10.0     S   1.67  21.0     S   58.0   61.4   58.5   57.5  30.009  0.00  0.05    17     0.24     35     0.0  0.00   0.0   0.028   0.000   72.2    57   56.1   72.0  10.46  .0737    0.000   202    7    100.0   10 
 9/28/22  5:40p   61.2   61.2   60.8    94   59.5  14.0     S   2.33  26.0     S   56.2   61.7   56.7   55.9  30.005  0.01  0.05    18     0.26     25     0.0  0.00   0.0   0.026   0.000   72.2    57   56.1   72.0  10.46  .0737    0.000   203    7    100.0   10 
 9/28/22  5:50p   61.0   61.2   60.9    95   59.6  19.0     S   3.17  44.0   SSE   54.6   61.5   55.1   55.6  30.006  0.02  0.28    56     0.80    107     0.0  0.00   0.0   0.028   0.000   72.2    58   56.6   72.0  10.66  .0737    0.000   203    7    100.0   10 
 9/28/22  6:00p   61.1   61.1   61.0    95   59.7  17.0     S   2.83  32.0   SSE   55.2   61.6   55.7   56.9  30.003  0.01  0.09    77     1.10    107     0.0  0.00   0.0   0.027   0.000   72.2    58   56.6   72.0  10.66  .0737    0.002   202    7    100.0   10 
 9/28/22  6:10p   61.1   61.1   60.8    94   59.4  18.0     S   3.00  33.0   SSE   54.9   61.6   55.4   55.1  30.005  0.00  0.04    26     0.37     63     0.0  0.00   0.0   0.027   0.000   72.2    58   56.6   72.0  10.66  .0737    0.000   203    7    100.0   10 
 9/28/22  6:20p   61.0   61.5   61.0    94   59.3  19.0     S   3.17  33.0   SSE   54.6   61.5   55.1   54.4  30.002  0.00  0.00    13     0.19     18     0.0  0.00   0.0   0.028   0.000   72.2    58   56.6   72.0  10.66  .0737    0.000   203    7    100.0   10 
 9/28/22  6:30p   60.6   61.0   60.5    96   59.5  20.0     S   3.33  35.0   SSE   53.9   61.1   54.4   53.9  30.002  0.02  0.34    18     0.26     26     0.0  0.00   0.0   0.031   0.000   72.2    58   56.6   72.0  10.66  .0737    0.000   203    7    100.0   10 
 9/28/22  6:40p   60.8   60.8   60.5    96   59.7  20.0     S   3.33  35.0     S   54.1   61.3   54.6   54.0  30.007  0.00  0.05    14     0.20     18     0.0  0.00   0.0   0.029   0.000   72.1    58   56.5   71.9  10.67  .0737    0.000   204    7    100.0   10 
 9/28/22  6:50p   60.6   60.9   60.6    96   59.5  21.0     S   3.50  33.0   SSE   53.7   61.1   54.2   53.0  30.006  0.00  0.00     6     0.09      9     0.0  0.00   0.0   0.031   0.000   72.1    58   56.5   71.9  10.67  .0737    0.000   202    7    100.0   10 
 9/28/22  7:00p   60.7   60.7   60.5    96   59.6  20.0     S   3.33  37.0     S   54.0   61.2   54.5   53.1  30.003  0.00  0.00     0     0.00      0     0.0  0.00   0.0   0.030   0.000   72.1    58   56.5   71.9  10.67  .0737    0.001   203    7    100.0   10 
 9/28/22  7:10p   61.1   61.1   60.6    95   59.7  19.0     S   3.17  35.0   SSE   54.7   61.6   55.2   53.8  30.001  0.01  0.00     0     0.00      0     0.0  0.00   0.0   0.027   0.000   72.1    58   56.5   71.9  10.67  .0737    0.000   203    7    100.0   10 
 9/28/22  7:20p   60.6   61.1   60.6    95   59.2  19.0     S   3.17  35.0   SSE   54.1   61.1   54.6   53.2  30.001  0.00  0.00     0     0.00      0     0.0  0.00   0.0   0.031   0.000   72.1    58   56.5   71.9  10.67  .0737    0.000   202    7    100.0   10 
 9/28/22  7:30p   60.5   60.7   60.4    95   59.1  20.0     S   3.33  30.0   SSE   53.8   61.0   54.3   52.9  30.009  0.01  0.00     0     0.00      0     0.0  0.00   0.0   0.031   0.000   72.1    58   56.5   71.9  10.67  .0737    0.000   203    7    100.0   10 
 9/28/22  7:40p   60.8   60.9   60.5    94   59.1  20.0     S   3.33  31.0   SSE   54.1   61.3   54.6   53.2  30.006  0.00  0.00     0     0.00      0     0.0  0.00   0.0   0.029   0.000   72.0    58   56.4   71.7  10.67  .0737    0.000   201    7    100.0   10 
 9/28/22  7:50p   60.9   61.0   60.8    94   59.2  20.0     S   3.33  37.0   SSE   54.2   61.4   54.7   53.3  30.009  0.00  0.00     0     0.00      0     0.0  0.00   0.0   0.028   0.000   72.0    58   56.4   71.7  10.67  .0737    0.000   204    7    100.0   10 
 9/28/22  8:00p   61.3   61.3   60.8    94   59.6  21.0     S   3.50  37.0     S   54.5   61.8   55.0   53.7  30.008  0.00  0.00     0     0.00      0     0.0  0.00   0.0   0.026   0.000   72.0    58   56.4   71.7  10.67  .0737    0.001   203    7    100.0   10 
 9/28/22  8:10p   61.3   61.4   61.1    94   59.6  20.0     S   3.33  33.0   SSE   54.7   61.8   55.2   53.8  30.010  0.00  0.00     0     0.00      0     0.0  0.00   0.0   0.026   0.000   72.0    58   56.4   71.7  10.67  .0737    0.000   204    7    100.0   10 
 9/28/22  8:20p   60.0   61.3   60.0    94   58.3  20.0     S   3.33  32.0     S   53.2   60.4   53.6   52.2  30.012  0.01  0.00     0     0.00      0     0.0  0.00   0.0   0.035   0.000   72.0    58   56.4   71.7  10.67  .0737    0.000   203    7    100.0   10 
 9/28/22  8:30p   59.9   60.0   59.6    96   58.8  21.0     S   3.50  32.0   SSE   52.9   60.3   53.3   52.0  30.012  0.00  0.00     0     0.00      0     0.0  0.00   0.0   0.035   0.000   72.0    58   56.4   71.7  10.67  .0737    0.000   203    7    100.0   10 
 9/28/22  8:40p   59.7   59.9   59.6    96   58.6  20.0     S   3.33  33.0     S   52.9   60.1   53.3   51.9  30.015  0.00  0.00     0     0.00      0     0.0  0.00   0.0   0.037   0.000   71.9    58   56.3   71.6  10.67  .0738    0.000   203    7    100.0   10 
 9/28/22  8:50p   58.7   59.8   58.3    98   58.1  19.0     S   3.17  30.0   SSE   52.0   59.1   52.4   51.0  30.017  0.02  0.12     0     0.00      0     0.0  0.00   0.0   0.044   0.000   72.0    58   56.4   71.7  10.67  .0737    0.000   205    7    100.0   10 
 9/28/22  9:00p   59.4   59.4   58.8    97   58.5  20.0     S   3.33  32.0   SSE   52.5   59.9   53.0   51.6  30.020  0.01  0.21     0     0.00      0     0.0  0.00   0.0   0.039   0.000   71.9    58   56.3   71.6  10.67  .0738    0.001   202    7    100.0   10 
 9/28/22  9:10p   59.3   59.5   59.1    97   58.4  20.0     S   3.33  33.0   SSE   52.4   59.8   52.9   51.5  30.026  0.00  0.00     0     0.00      0     0.0  0.00   0.0   0.040   0.000   71.9    58   56.3   71.6  10.67  .0738    0.000   203    7    100.0   10 
 9/28/22  9:20p   59.7   59.8   59.3    97   58.8  20.0     S   3.33  32.0     S   52.9   60.2   53.4   52.0  30.027  0.00  0.00     0     0.00      0     0.0  0.00   0.0   0.037   0.000   71.9    58   56.3   71.6  10.67  .0738    0.000   201    7    100.0   10 
 9/28/22  9:30p   59.8   59.8   59.6    98   59.2  20.0     S   3.33  32.0   SSE   53.0   60.3   53.5   52.1  30.026  0.00  0.00     0     0.00      0     0.0  0.00   0.0   0.036   0.000   71.9    58   56.3   71.6  10.67  .0738    0.000   204    7    100.0   10 
 9/28/22  9:40p   59.8   59.9   59.2    98   59.2  19.0     S   3.17  34.0     S   53.2   60.3   53.7   52.3  30.030  0.00  0.00     0     0.00      0     0.0  0.00   0.0   0.036   0.000   71.8    58   56.2   71.5  10.68  .0738    0.000   203    7    100.0   10 
 9/28/22  9:50p   59.9   59.9   59.6    98   59.3  20.0     S   3.33  32.0   SSE   53.1   60.4   53.6   52.2  30.032  0.00  0.00     0     0.00      0     0.0  0.00   0.0   0.035   0.000   71.8    58   56.2   71.5  10.68  .0738    0.000   202    7    100.0   10 
 9/28/22 10:00p   59.9   60.1   59.8    98   59.3  19.0     S   3.17  33.0   SSE   53.3   60.4   53.8   52.4  30.032  0.01  0.00     0     0.00      0     0.0  0.00   0.0   0.035   0.000   71.8    58   56.2   71.5  10.68  .0738    0.000   205    7    100.0   10 
 9/28/22 10:10p   59.9   60.0   59.8    97   59.0  18.0     S   3.00  29.0     S   53.6   60.4   54.1   52.7  30.035  0.00  0.00     0     0.00      0     0.0  0.00   0.0   0.035   0.000   71.8    58   56.2   71.5  10.68  .0738    0.000   204    7    100.0   10 
 9/28/22 10:20p   60.0   60.0   59.7    97   59.1  16.0     S   2.67  28.0   SSE   54.2   60.5   54.7   53.2  30.038  0.00  0.00     0     0.00      0     0.0  0.00   0.0   0.035   0.000   71.8    58   56.2   71.5  10.68  .0738    0.000   203    7    100.0   10 
 9/28/22 10:30p   60.1   60.2   59.9    97   59.2  17.0     S   2.83  27.0     S   54.0   60.6   54.5   53.0  30.038  0.00  0.00     0     0.00      0     0.0  0.00   0.0   0.034   0.000   71.8    58   56.2   71.5  10.68  .0738    0.000   201    7    100.0   10 
 9/28/22 10:40p   60.4   60.4   60.1    98   59.8  17.0     S   2.83  26.0   SSE   54.4   61.0   55.0   53.5  30.037  0.00  0.00     0     0.00      0     0.0  0.00   0.0   0.032   0.000   71.8    58   56.2   71.5  10.68  .0738    0.000   205    7    100.0   10 
 9/28/22 10:50p   60.6   60.6   60.3    98   60.0  17.0     S   2.83  30.0     S   54.6   61.2   55.2   53.8  30.033  0.00  0.00     0     0.00      0     0.0  0.00   0.0   0.031   0.000   71.8    58   56.2   71.5  10.68  .0738    0.000   201    7    100.0   10 
 9/28/22 11:00p   60.3   60.7   60.3    97   59.4  17.0     S   2.83  29.0   SSE   54.3   60.8   54.8   53.3  30.036  0.01  0.00     0     0.00      0     0.0  0.00   0.0   0.033   0.000   71.7    58   56.1   71.3  10.68  .0738    0.000   204    7    100.0   10 
 9/28/22 11:10p   60.0   60.3   60.0    97   59.1  18.0     S   3.00  27.0   SSE   53.7   60.5   54.2   52.8  30.041  0.00  0.00     0     0.00      0     0.0  0.00   0.0   0.035   0.000   71.8    58   56.2   71.5  10.68  .0738    0.000   203    7    100.0   10 
 9/28/22 11:20p   59.9   60.3   59.9    98   59.3  17.0     S   2.83  29.0   SSE   53.8   60.4   54.3   52.8  30.039  0.00  0.00     0     0.00      0     0.0  0.00   0.0   0.035   0.000   71.7    58   56.1   71.3  10.68  .0738    0.000   203    7    100.0   10 
 9/28/22 11:30p   59.5   60.0   59.2    98   58.9  17.0     S   2.83  32.0   SSE   53.4   60.0   53.9   52.4  30.043  0.00  0.00     0     0.00      0     0.0  0.00   0.0   0.038   0.000   71.7    58   56.1   71.3  10.68  .0739    0.000   203    7    100.0   10 
 9/28/22 11:40p   59.8   59.8   59.4    98   59.2  20.0     S   3.33  32.0     S   53.0   60.3   53.5   52.1  30.045  0.00  0.00     0     0.00      0     0.0  0.00   0.0   0.036   0.000   71.7    58   56.1   71.3  10.68  .0739    0.000   202    7    100.0   10 
 9/28/22 11:50p   59.5   59.8   59.2    99   59.2  17.0     S   2.83  29.0   SSE   53.4   60.0   53.9   52.4  30.043  0.00  0.00     0     0.00      0     0.0  0.00   0.0   0.038   0.000   71.7    58   56.1   71.3  10.68  .0739    0.000   203    7    100.0   10 
 9/29/22 12:00a   59.4   59.7   59.3    98   58.8  17.0     S   2.83  27.0   SSE   53.2   59.9   53.7   52.2  30.047  0.00  0.00     0     0.00      0     0.0  0.00   0.0   0.039   0.000   71.7    58   56.1   71.3  10.68  .0739    0.000   205    7    100.0   10 
 9/29/22 12:10a   59.5   59.7   59.2    98   58.9  16.0     S   2.67  26.0   SSE   53.7   60.0   54.2   52.7  30.046  0.00  0.00     0     0.00      0     0.0  0.00   0.0   0.038   0.000   71.6    58   56.0   71.2  10.69  .0739    0.000   200    7    100.0   10 
 9/29/22 12:20a   59.5   59.6   59.1    98   58.9  16.0     S   2.67  24.0     S   53.7   60.0   54.2   52.7  30.046  0.00  0.00     0     0.00      0     0.0  0.00   0.0   0.038   0.000   71.6    58   56.0   71.2  10.69  .0739    0.000   203    7    100.0   10 
 9/29/22 12:30a   60.1   60.1   59.1    98   59.5  17.0     S   2.83  26.0   SSE   54.0   60.6   54.5   53.0  30.046  0.01  0.00     0     0.00      0     0.0  0.00   0.0   0.034   0.000   71.6    58   56.0   71.2  10.69  .0739    0.000   202    7    100.0   10 
 9/29/22 12:40a   59.6   60.1   59.4    98   59.0  16.0     S   2.67  24.0   SSE   53.8   60.1   54.3   52.8  30.046  0.00  0.00     0     0.00      0     0.0  0.00   0.0   0.038   0.000   71.6    58   56.0   71.2  10.69  .0739    0.000   203    7    100.0   10 
 9/29/22 12:50a   59.9   59.9   59.4    99   59.6  16.0     S   2.67  27.0     S   54.1   60.5   54.7   53.2  30.045  0.00  0.00     0     0.00      0     0.0  0.00   0.0   0.035   0.000   71.6    58   56.0   71.2  10.69  .0739    0.000   204    7    100.0   10 
 9/29/22  1:00a   59.4   60.1   59.4    98   58.8  16.0     S   2.67  26.0     S   53.5   59.9   54.0   52.5  30.052  0.00  0.00     0     0.00      0     0.0  0.00   0.0   0.039   0.000   71.6    58   56.0   71.2  10.69  .0739    0.000   204    7    100.0   10 
 9/29/22  1:10a   60.2   60.2   59.4    98   59.6  15.0     S   2.50  26.0   SSE   54.7   60.7   55.2   53.6  30.052  0.00  0.00     0     0.00      0     0.0  0.00   0.0   0.033   0.000   71.6    58   56.0   71.2  10.69  .0739    0.000   205    7    100.0   10 
 9/29/22  1:20a   59.9   60.1   59.8    98   59.3  15.0     S   2.50  25.0     S   54.4   60.4   54.9   53.3  30.052  0.00  0.00     0     0.00      0     0.0  0.00   0.0   0.035   0.000   71.6    58   56.0   71.2  10.69  .0739    0.000   203    7    100.0   10 
 9/29/22  1:30a   59.9   60.2   59.8    98   59.3  15.0     S   2.50  22.0   SSE   54.4   60.4   54.9   53.3  30.051  0.00  0.00     0     0.00      0     0.0  0.00   0.0   0.035   0.000   71.6    58   56.0   71.2  10.69  .0739    0.000   203    7    100.0   10 
 9/29/22  1:40a   59.9   60.2   59.7    98   59.3  14.0     S   2.33  23.0     S   54.8   60.4   55.3   53.7  30.051  0.00  0.00     0     0.00      0     0.0  0.00   0.0   0.035   0.000   71.6    58   56.0   71.2  10.69  .0739    0.000   201    7    100.0   10 
 9/29/22  1:50a   59.5   60.0   59.5    98   58.9  14.0     S   2.33  27.0   SSE   54.4   60.0   54.9   53.3  30.061  0.01  0.00     0     0.00      0     0.0  0.00   0.0   0.038   0.000   71.6    58   56.0   71.2  10.69  .0739    0.000   205    7    100.0   10 
 9/29/22  2:00a   59.2   59.5   59.1    99   58.9  15.0     S   2.50  26.0   SSE   53.6   59.7   54.1   52.5  30.064  0.00  0.00     0     0.00      0     0.0  0.00   0.0   0.040   0.000   71.6    58   56.0   71.2  10.69  .0739    0.000   203    7    100.0   10 
 9/29/22  2:10a   59.4   59.4   59.1    99   59.1  14.0     S   2.33  26.0     S   54.2   59.9   54.7   53.1  30.067  0.00  0.00     0     0.00      0     0.0  0.00   0.0   0.039   0.000   71.5    58   55.9   71.0  10.69  .0740    0.000   203    7    100.0   10 
 9/29/22  2:20a   59.3   59.5   59.2    99   59.0  14.0     S   2.33  24.0   SSE   54.1   59.8   54.6   53.0  30.072  0.00  0.00     0     0.00      0     0.0  0.00   0.0   0.040   0.000   71.5    58   55.9   71.0  10.69  .0740    0.000   203    7    100.0   10 
 9/29/22  2:30a   59.7   59.7   59.4    99   59.4  13.0     S   2.17  22.0   SSE   54.9   60.2   55.4   53.7  30.072  0.00  0.00     0     0.00      0     0.0  0.00   0.0   0.037   0.000   71.5    58   55.9   71.0  10.69  .0740    0.000   203    7    100.0   10 
 9/29/22  2:40a   59.6   59.8   59.5    99   59.3  14.0     S   2.33  21.0   SSE   54.5   60.1   55.0   53.4  30.077  0.00  0.00     0     0.00      0     0.0  0.00   0.0   0.038   0.000   71.5    58   55.9   71.0  10.69  .0740    0.000   202    7    100.0   10 
 9/29/22  2:50a   59.1   59.6   59.1    98   58.5  13.0     S   2.17  21.0   SSE   54.2   59.6   54.7   53.0  30.078  0.00  0.00     0     0.00      0     0.0  0.00   0.0   0.041   0.000   71.5    58   55.9   71.0  10.69  .0740    0.000   203    7    100.0   10 
 9/29/22  3:00a   59.5   59.5   59.1    99   59.2  11.0     S   1.83  17.0   SSE   55.8   60.0   56.3   54.5  30.081  0.00  0.00     0     0.00      0     0.0  0.00   0.0   0.038   0.000   71.4    58   55.9   70.9  10.69  .0740    0.000   204    7    100.0   10 
 9/29/22  3:10a   59.2   59.5   59.2    99   58.9  12.0     S   2.00  21.0   SSE   54.8   59.7   55.3   53.6  30.082  0.00  0.00     0     0.00      0     0.0  0.00   0.0   0.040   0.000   71.4    58   55.9   70.9  10.69  .0740    0.000   204    7    100.0   10 
 9/29/22  3:20a   59.3   59.4   59.1    99   59.0  12.0     S   2.00  19.0   SSE   55.0   59.8   55.5   53.8  30.088  0.00  0.00     0     0.00      0     0.0  0.00   0.0   0.040   0.000   71.4    58   55.9   70.9  10.69  .0740    0.000   202    7    100.0   10 
 9/29/22  3:30a   58.6   59.4   58.6    99   58.3  12.0     S   2.00  22.0   SSE   54.2   59.0   54.6   52.9  30.088  0.00  0.00     0     0.00      0     0.0  0.00   0.0   0.044   0.000   71.4    58   55.9   70.9  10.69  .0740    0.000   201    7    100.0   10 
 9/29/22  3:40a   58.9   58.9   58.6    99   58.6  10.0     S   1.67  19.0   SSE   55.7   59.4   56.2   54.4  30.091  0.01  0.00     0     0.00      0     0.0  0.00   0.0   0.042   0.000   71.4    58   55.9   70.9  10.69  .0740    0.000   204    7    100.0   10 
 9/29/22  3:50a   59.0   59.4   58.9    99   58.7  10.0     S   1.67  16.0   SSE   55.8   59.5   56.3   54.5  30.092  0.00  0.00     0     0.00      0     0.0  0.00   0.0   0.042   0.000   71.4    58   55.9   70.9  10.69  .0740    0.000   204    7    100.0   10 
 9/29/22  4:00a   58.9   59.0   58.8    99   58.6  11.0     S   1.83  20.0     S   55.1   59.4   55.6   53.8  30.095  0.00  0.00     0     0.00      0     0.0  0.00   0.0   0.042   0.000   71.3    58   55.8   70.7  10.70  .0741    0.000   201    7    100.0   10 
 9/29/22  4:10a   59.4   59.5   58.9    99   59.1   8.0     S   1.33  19.0   SSE   57.8   59.9   58.3   56.3  30.097  0.01  0.00     0     0.00      0     0.0  0.00   0.0   0.039   0.000   71.3    58   55.8   70.7  10.70  .0741    0.000   202    7    100.0   10 
 9/29/22  4:20a   59.1   59.5   59.1    99   58.8  10.0     S   1.67  16.0     S   55.9   59.6   56.4   54.6  30.099  0.00  0.00     0     0.00      0     0.0  0.00   0.0   0.041   0.000   71.3    58   55.8   70.7  10.70  .0741    0.000   205    7    100.0   10 
 9/29/22  4:30a   59.2   59.3   58.9    99   58.9   8.0     S   1.33  13.0   SSE   57.5   59.7   58.0   56.0  30.103  0.00  0.00     0     0.00      0     0.0  0.00   0.0   0.040   0.000   71.3    58   55.8   70.7  10.70  .0741    0.000   204    7    100.0   10 
 9/29/22  4:40a   59.2   59.3   59.2    99   58.9   8.0     S   1.33  14.0   SSE   57.5   59.7   58.0   56.0  30.103  0.00  0.00     0     0.00      0     0.0  0.00   0.0   0.040   0.000   71.2    58   55.7   70.6  10.70  .0741    0.000   203    7    100.0   10 
 9/29/22  4:50a   58.8   59.2   58.8    99   58.5   9.0     S   1.50  15.0   SSE   56.3   59.3   56.8   54.9  30.103  0.00  0.00     0     0.00      0     0.0  0.00   0.0   0.043   0.000   71.3    58   55.8   70.7  10.70  .0741    0.000   204    7    100.0   10 
 9/29/22  5:00a   58.8   58.8   58.6    99   58.5   8.0     S   1.33  14.0   SSE   57.1   59.3   57.6   55.6  30.105  0.00  0.00     0     0.00      0     0.0  0.00   0.0   0.043   0.000   71.2    58   55.7   70.6  10.70  .0741    0.000   205    7    100.0   10 
 9/29/22  5:10a   58.8   58.9   58.6   100   58.8   8.0     S   1.33  14.0     S   57.1   59.3   57.6   55.6  30.105  0.00  0.00     0     0.00      0     0.0  0.00   0.0   0.043   0.000   71.2    58   55.7   70.6  10.70  .0741    0.000   203    7    100.0   10 
 9/29/22  5:20a   59.0   59.3   58.8    99   58.7   9.0     S   1.50  17.0   SSE   56.5   59.5   57.0   55.1  30.107  0.00  0.00     0     0.00      0     0.0  0.00   0.0   0.042   0.000   71.2    58   55.7   70.6  10.70  .0741    0.000   204    7    100.0   10 
 9/29/22  5:30a   59.0   59.1   58.8    99   58.7   9.0     S   1.50  14.0     S   56.5   59.5   57.0   55.1  30.108  0.00  0.00     0     0.00      0     0.0  0.00   0.0   0.042   0.000   71.2    58   55.7   70.6  10.70  .0741    0.000   203    7    100.0   10 
 9/29/22  5:40a   59.3   59.4   59.1    99   59.0  10.0     S   1.67  16.0     S   56.2   59.8   56.7   54.9  30.112  0.00  0.00     0     0.00      0     0.0  0.00   0.0   0.040   0.000   71.2    58   55.7   70.6  10.70  .0741    0.000   201    7    100.0   10 
 9/29/22  5:50a   59.4   59.5   59.1    99   59.1  10.0     S   1.67  16.0   SSE   56.3   59.9   56.8   55.0  30.118  0.00  0.00     0     0.00      0     0.0  0.00   0.0   0.039   0.000   71.2    58   55.7   70.6  10.70  .0741    0.000   202    7    100.0   10 
 9/29/22  6:00a   59.4   59.5   59.2    99   59.1  10.0     S   1.67  15.0   SSE   56.3   59.9   56.8   55.0  30.120  0.00  0.00     0     0.00      0     0.0  0.00   0.0   0.039   0.000   71.1    59   56.0   70.5  10.91  .0741    0.000   203    7    100.0   10 
 9/29/22  6:10a   58.9   59.4   58.9    99   58.6  10.0     S   1.67  15.0   SSE   55.7   59.4   56.2   54.4  30.124  0.00  0.00     0     0.00      0     0.0  0.00   0.0   0.042   0.000   71.1    59   56.0   70.5  10.91  .0741    0.000   205    7    100.0   10 
 9/29/22  6:20a   58.7   58.9   58.7    99   58.4   8.0     S   1.33  12.0   SSE   56.9   59.2   57.4   55.4  30.128  0.00  0.00     0     0.00      0     0.0  0.00   0.0   0.044   0.000   71.1    59   56.0   70.5  10.91  .0742    0.000   201    7    100.0   10 
 9/29/22  6:30a   58.5   58.7   58.5    99   58.2   9.0     S   1.50  14.0   SSE   55.9   58.9   56.3   54.4  30.129  0.01  0.00     0     0.00      0     0.0  0.00   0.0   0.045   0.000   71.1    59   56.0   70.5  10.91  .0742    0.000   200    7    100.0   10 
 9/29/22  6:40a   58.4   58.5   58.2   100   58.4   8.0     S   1.33  12.0   SSE   56.6   58.8   57.0   55.0  30.132  0.00  0.00     0     0.00      0     0.0  0.00   0.0   0.046   0.000   71.1    59   56.0   70.5  10.91  .0742    0.000   204    7    100.0   10 
 9/29/22  6:50a   58.8   58.9   58.4   100   58.8   6.0     S   1.00  11.0   SSE   58.2   59.3   58.7   56.6  30.135  0.00  0.00     0     0.00      0     0.0  0.00   0.0   0.043   0.000   71.1    59   56.0   70.5  10.91  .0742    0.000   205    7    100.0   10 
 9/29/22  7:00a   58.7   58.9   58.7   100   58.7   7.0     S   1.17  13.0     S   57.6   59.2   58.1   56.0  30.136  0.00  0.00     0     0.00      0     0.0  0.00   0.0   0.044   0.000   71.1    59   56.0   70.5  10.91  .0742    0.000   202    7    100.0   10 
 9/29/22  7:10a   58.6   58.8   58.5   100   58.6   8.0     S   1.33  13.0     S   56.8   59.1   57.3   55.3  30.139  0.00  0.00     0     0.00      0     0.0  0.00   0.0   0.044   0.000   71.1    59   56.0   70.5  10.91  .0742    0.000   201    7    100.0   10 
 9/29/22  7:20a   58.6   58.8   58.6   100   58.6   7.0     S   1.17  14.0   SSE   57.5   59.1   58.0   55.9  30.144  0.00  0.00     1     0.01      5     0.0  0.00   0.0   0.044   0.000   71.0    59   55.9   70.4  10.91  .0742    0.000   201    7    100.0   10 
 9/29/22  7:30a   58.7   58.8   58.6   100   58.7   7.0     S   1.17  11.0   SSE   57.6   59.2   58.1   56.1  30.148  0.00  0.00     4     0.06      5     0.0  0.00   0.0   0.044   0.000   71.1    59   56.0   70.5  10.91  .0742    0.000   201    7    100.0   10 
 9/29/22  7:40a   58.9   58.9   58.7   100   58.9   8.0     S   1.33  13.0   SSE   57.2   59.4   57.7   55.9  30.151  0.00  0.00    11     0.16     14     0.0  0.00   0.0   0.042   0.000   71.0    59   55.9   70.4  10.91  .0742    0.000   203    7    100.0   10 
 9/29/22  7:50a   58.9   59.0   58.8   100   58.9   7.0     S   1.17  12.0     S   57.9   59.4   58.4   56.6  30.154  0.00  0.00    12     0.17     18     0.0  0.00   0.0   0.042   0.000   71.1    59   56.0   70.5  10.91  .0742    0.000   202    7    100.0   10 
 9/29/22  8:00a   59.0   59.1   59.0   100   59.0   6.0     S   1.00  11.0   SSE   58.4   59.5   58.9   58.1  30.157  0.00  0.00    18     0.26     25     0.0  0.00   0.0   0.042   0.000   71.1    59   56.0   70.5  10.91  .0742    0.000   203    7    100.0   10 
 9/29/22  8:10a   59.2   59.3   59.0   100   59.2   6.0     S   1.00  10.0   SSE   58.6   59.7   59.1   58.6  30.164  0.00  0.00    25     0.36     39     0.0  0.00   0.0   0.040   0.000   71.1    59   56.0   70.5  10.91  .0742    0.000   204    7    100.0   10 
 9/29/22  8:20a   58.8   59.2   58.6   100   58.8   6.0     S   1.00  10.0   SSE   58.2   59.3   58.7   58.9  30.166  0.00  0.00    40     0.57     51     0.0  0.00   0.0   0.043   0.000   71.1    59   56.0   70.5  10.91  .0743    0.000   202    7    100.0   10 
 9/29/22  8:30a   58.3   58.9   58.1   100   58.3   6.0     S   1.00  10.0     S   57.6   58.7   58.0   57.2  30.168  0.00  0.00    22     0.32     28     0.0  0.00   0.0   0.047   0.000   71.1    59   56.0   70.5  10.91  .0743    0.000   204    7    100.0   10 
 9/29/22  8:40a   58.9   58.9   58.3   100   58.9   7.0     S   1.17  16.0   SSW   57.9   59.4   58.4   58.4  30.168  0.00  0.00    39     0.56     58     0.0  0.00   0.0   0.042   0.000   71.1    59   56.0   70.5  10.91  .0743    0.000   203    7    100.0   10 
 9/29/22  8:50a   58.8   59.2   58.8   100   58.8   7.0     S   1.17  12.0     S   57.8   59.3   58.3   58.4  30.172  0.00  0.00    43     0.62     63     0.0  0.00   0.0   0.043   0.000   71.1    59   56.0   70.5  10.91  .0743    0.000   204    7    100.0   10 
 9/29/22  9:00a   58.8   58.9   58.6   100   58.8   7.0     S   1.17  10.0   SSE   57.8   59.3   58.3   58.5  30.174  0.00  0.00    49     0.70     60     0.0  0.00   0.0   0.043   0.000   71.1    59   56.0   70.5  10.91  .0743    0.001   204    7    100.0   10 
 9/29/22  9:10a   58.6   58.8   58.6    99   58.3   7.0     S   1.17  10.0   SSE   57.5   59.0   57.9   58.4  30.178  0.00  0.00    56     0.80     67     0.0  0.00   0.0   0.044   0.000   71.1    59   56.0   70.5  10.91  .0743    0.000   204    7    100.0   10 
 9/29/22  9:20a   58.1   58.5   58.1   100   58.1   6.0     S   1.00   9.0   SSE   57.3   58.5   57.7   58.4  30.182  0.00  0.00    64     0.92     74     0.0  0.00   0.0   0.048   0.000   71.1    59   56.0   70.5  10.91  .0743    0.000   205    7    100.0   10 
 9/29/22  9:30a   58.7   58.7   58.1   100   58.7   6.0     S   1.00  11.0    SE   58.0   59.2   58.5   59.4  30.182  0.00  0.00    72     1.03     81     0.3  0.02   0.5   0.044   0.000   71.1    59   56.0   70.5  10.91  .0743    0.000   200    7    100.0   10 
 9/29/22  9:40a   58.2   58.8   58.0   100   58.2   8.0     S   1.33  12.0     S   56.3   58.6   56.7   57.1  30.186  0.00  0.00    61     0.87     74     0.0  0.00   0.0   0.047   0.000   71.1    59   56.0   70.5  10.91  .0743    0.000   203    7    100.0   10 
 9/29/22  9:50a   58.1   58.4   58.0   100   58.1   7.0     S   1.17  12.0   SSE   56.9   58.5   57.3   57.5  30.190  0.01  0.00    56     0.80     67     0.2  0.01   0.6   0.048   0.000   71.2    59   56.1   70.7  10.90  .0743    0.000   204    7    100.0   10 
 9/29/22 10:00a   58.2   58.3   57.9   100   58.2   6.0     S   1.00  10.0   SSE   57.4   58.6   57.8   59.4  30.192  0.00  0.00   101     1.45    155     0.8  0.06   0.9   0.047   0.000   71.2    59   56.1   70.7  10.90  .0743    0.001   202    7    100.0   10 
 9/29/22 10:10a   58.7   58.7   58.3   100   58.7   4.0     S   0.67   8.0     S   58.7   59.2   59.2   61.7  30.194  0.00  0.00   131     1.88    149     0.9  0.06   1.0   0.044   0.000   71.2    59   56.1   70.7  10.90  .0743    0.000   204    7    100.0   10 
 9/29/22 10:20a   58.7   58.8   58.6   100   58.7   4.0     S   0.67   7.0     S   58.7   59.2   59.2   62.1  30.194  0.00  0.00   146     2.09    163     1.0  0.07   1.1   0.044   0.000   71.2    59   56.1   70.7  10.90  .0743    0.000   203    7    100.0   10 
 9/29/22 10:30a   59.1   59.1   58.4   100   59.1   5.0     S   0.83   9.0   SSE   58.9   59.6   59.4   62.5  30.196  0.00  0.00   156     2.24    234     1.1  0.08   1.3   0.041   0.000   71.3    59   56.2   70.8  10.90  .0743    0.000   203    7    100.0   10 
 9/29/22 10:40a   58.8   59.3   58.7   100   58.8   6.0     S   1.00   9.0     S   58.2   59.3   58.7   62.4  30.200  0.00  0.00   185     2.65    237     1.2  0.09   1.3   0.043   0.000   71.3    59   56.2   70.8  10.90  .0743    0.000   203    7    100.0   10 
 9/29/22 10:50a   58.8   59.0   58.7   100   58.8   6.0     S   1.00  10.0   SSE   58.2   59.3   58.7   60.8  30.205  0.00  0.00   131     1.88    174     1.2  0.09   1.3   0.043   0.000   71.3    59   56.2   70.8  10.90  .0743    0.000   203    7    100.0   10 
 9/29/22 11:00a   59.0   59.0   58.5   100   59.0   6.0     S   1.00  10.0   SSE   58.4   59.5   58.9   61.7  30.208  0.00  0.00   155     2.22    232     1.3  0.09   1.4   0.042   0.000   71.3    59   56.2   70.8  10.90  .0743    0.003   202    7    100.0   10 
 9/29/22 11:10a   58.7   59.0   58.6   100   58.7   6.0     S   1.00  10.0   SSE   58.0   59.2   58.5   61.5  30.211  0.00  0.00   167     2.39    207     1.2  0.09   1.4   0.044   0.000   71.4    59   56.3   71.0  10.89  .0743    0.000   203    7    100.0   10 
 9/29/22 11:20a   58.2   58.8   58.2   100   58.2   6.0     S   1.00  10.0     S   57.4   58.6   57.8   60.7  30.214  0.00  0.00   167     2.39    179     1.3  0.09   1.3   0.047   0.000   71.4    59   56.3   71.0  10.89  .0743    0.000   201    7    100.0   10 
 9/29/22 11:30a   58.1   58.2   57.9   100   58.1   5.0     S   0.83   9.0     S   57.7   58.5   58.1   62.9  30.215  0.00  0.00   247     3.54    325     1.8  0.13   2.2   0.048   0.000   71.4    59   56.3   71.0  10.89  .0743    0.000   202    7    100.0   10 
 9/29/22 11:40a   58.2   58.5   58.1   100   58.2   4.0     S   0.67   6.0     S   58.2   58.6   58.6   64.8  30.216  0.00  0.00   308     4.42    381     2.0  0.14   2.3   0.047   0.000   71.5    59   56.4   71.1  10.89  .0743    0.000   204    7    100.0   10 
 9/29/22 11:50a   58.5   58.5   58.1   100   58.5   3.0     S   0.50   6.0     S   58.5   59.0   59.0   65.7  30.215  0.00  0.00   333     4.77    364     2.4  0.17   2.6   0.045   0.000   71.6    59   56.5   71.3  10.89  .0743    0.000   203    7    100.0   10 
 9/29/22 12:00p   58.6   58.7   58.5   100   58.6   3.0   SSW   0.50   6.0   SSE   58.6   59.1   59.1   64.6  30.215  0.00  0.00   280     4.01    367     2.1  0.15   2.6   0.044   0.000   71.7    59   56.6   71.4  10.88  .0743    0.005   203    7    100.0   10 
 9/29/22 12:10p   58.1   58.6   58.1   100   58.1   4.0   SSW   0.67   7.0    SW   58.1   58.5   58.5   60.9  30.218  0.00  0.00   156     2.24    188     1.3  0.09   1.5   0.048   0.000   71.6    58   56.0   71.2  10.69  .0743    0.000   201    7    100.0   10 
 9/29/22 12:20p   57.9   58.1   57.8   100   57.9   4.0     S   0.67   7.0   SSW   57.9   58.3   58.3   60.3  30.218  0.00  0.00   145     2.08    199     1.3  0.09   1.7   0.049   0.000   71.7    58   56.1   71.3  10.68  .0743    0.000   203    7    100.0   10 
 9/29/22 12:30p   58.4   58.4   57.9   100   58.4   3.0     S   0.50   6.0   SSE   58.4   58.8   58.8   63.3  30.220  0.00  0.00   248     3.56    292     2.1  0.15   2.4   0.046   0.000   71.7    58   56.1   71.3  10.68  .0743    0.000   203    7    100.0   10 
 9/29/22 12:40p   59.2   59.2   58.4   100   59.2   2.0   SSW   0.33   4.0   SSE   59.2   59.7   59.7   66.9  30.220  0.00  0.00   370     5.30    429     2.9  0.21   3.1   0.040   0.000   71.8    58   56.2   71.5  10.68  .0743    0.000   202    7    100.0   10 
 9/29/22 12:50p   59.3   59.4   59.2   100   59.3   2.0   SSW   0.33   4.0    SW   59.3   59.8   59.8   66.6  30.220  0.00  0.00   349     5.00    374     2.8  0.20   3.0   0.040   0.000   71.8    58   56.2   71.5  10.68  .0743    0.000   203    7    100.0   10 
 9/29/22  1:00p   58.8   59.3   58.8   100   58.8   3.0   SSW   0.50   5.0   SSE   58.8   59.3   59.3   64.9  30.222  0.00  0.00   294     4.21    364     2.2  0.16   2.7   0.043   0.000   71.9    58   56.3   71.6  10.67  .0743    0.005   203    7    100.0   10 
 9/29/22  1:10p   58.8   59.1   58.8   100   58.8   3.0   SSW   0.50   6.0     S   58.8   59.3   59.3   63.5  30.222  0.00  0.00   235     3.37    243     1.9  0.14   2.0   0.043   0.000   71.9    58   56.3   71.6  10.67  .0743    0.000   204    7    100.0   10 
 9/29/22  1:20p   58.8   58.8   58.7   100   58.8   3.0   SSW   0.50   5.0     S   58.8   59.3   59.3   63.3  30.224  0.00  0.00   225     3.23    243     1.9  0.14   2.0   0.043   0.000   71.9    58   56.3   71.6  10.67  .0743    0.000   203    7    100.0   10 
 9/29/22  1:30p   58.1   58.8   58.1   100   58.1   4.0     S   0.67   6.0   SSE   58.1   58.5   58.5   61.3  30.223  0.00  0.00   176     2.52    213     1.6  0.11   1.9   0.048   0.000   72.0    58   56.4   71.7  10.67  .0743    0.000   203    7    100.0   10 
 9/29/22  1:40p   57.9   58.1   57.8   100   57.9   4.0     S   0.67   6.0   SSE   57.9   58.3   58.3   62.0  30.221  0.00  0.00   215     3.08    251     1.7  0.12   1.9   0.049   0.000   72.0    58   56.4   71.7  10.67  .0742    0.000   204    7    100.0   10 
 9/29/22  1:50p   58.0   58.1   57.8   100   58.0   4.0     S   0.67   6.0   SSW   58.0   58.4   58.4   60.8  30.222  0.00  0.00   161     2.31    204     1.3  0.09   1.6   0.049   0.000   72.0    58   56.4   71.7  10.67  .0743    0.000   204    7    100.0   10 
 9/29/22  2:00p   58.0   58.1   58.0   100   58.0   4.0     S   0.67   7.0    SE   58.0   58.4   58.4   60.5  30.220  0.00  0.00   148     2.12    169     1.2  0.09   1.3   0.049   0.000   72.0    58   56.4   71.7  10.67  .0742    0.004   204    7    100.0   10 
 9/29/22  2:10p   58.1   58.1   57.8   100   58.1   4.0     S   0.67   6.0     S   58.1   58.5   58.5   61.0  30.216  0.00  0.00   164     2.35    181     1.3  0.09   1.3   0.048   0.000   72.0    58   56.4   71.7  10.67  .0742    0.000   203    7    100.0   10 
 9/29/22  2:20p   58.3   58.3   58.1   100   58.3   3.0     S   0.50   5.0   SSE   58.3   58.7   58.7   61.9  30.217  0.00  0.00   190     2.72    214     1.4  0.10   1.5   0.047   0.000   72.0    59   56.9   71.8  10.87  .0742    0.000   202    7    100.0   10 
 9/29/22  2:30p   58.1   58.2   58.0   100   58.1   3.0     S   0.50   6.0   SSE   58.1   58.5   58.5   61.0  30.217  0.00  0.00   159     2.28    163     1.2  0.09   1.2   0.048   0.000   72.1    59   57.0   72.0  10.87  .0742    0.000   204    7    100.0   10 
 9/29/22  2:40p   58.5   58.5   58.1   100   58.5   3.0     S   0.50   6.0   ESE   58.5   59.0   59.0   62.3  30.219  0.00  0.00   191     2.74    200     1.4  0.10   1.5   0.045   0.000   72.1    59   57.0   72.0  10.87  .0742    0.000   203    7    100.0   10 
 9/29/22  2:50p   58.6   58.6   58.4   100   58.6   2.0   SSW   0.33   5.0   SSW   58.6   59.1   59.1   63.1  30.220  0.00  0.00   218     3.13    225     1.5  0.11   1.5   0.044   0.000   72.1    59   57.0   72.0  10.87  .0742    0.000   204    7    100.0   10 
 9/29/22  3:00p   58.5   58.7   58.4   100   58.5   2.0   SSW   0.33   3.0   SSW   58.5   59.0   59.0   62.1  30.222  0.00  0.00   178     2.55    214     1.2  0.09   1.4   0.045   0.000   72.1    59   57.0   72.0  10.87  .0742    0.004   203    7    100.0   10 
 9/29/22  3:10p   58.5   58.6   58.4   100   58.5   2.0   SSW   0.33   4.0    SW   58.5   59.0   59.0   61.3  30.223  0.01  0.00   147     2.11    153     1.1  0.08   1.1   0.045   0.000   72.1    59   57.0   72.0  10.87  .0742    0.000   203    7    100.0   10 
 9/29/22  3:20p   58.4   58.5   58.3   100   58.4   2.0   SSW   0.33   4.0     S   58.4   58.8   58.8   61.5  30.224  0.00  0.00   158     2.26    162     1.1  0.08   1.2   0.046   0.000   72.2    59   57.1   72.1  10.86  .0742    0.000   202    7    100.0   10 
 9/29/22  3:30p   58.1   58.4   58.1   100   58.1   2.0   SSW   0.33   4.0   SSE   58.1   58.5   58.5   61.3  30.224  0.00  0.00   160     2.29    181     1.1  0.08   1.1   0.048   0.000   72.2    59   57.1   72.1  10.86  .0742    0.000   203    7    100.0   10 
 9/29/22  3:40p   58.0   58.2   57.9   100   58.0   2.0   WSW   0.33   4.0   WSW   58.0   58.4   58.4   61.8  30.223  0.00  0.00   180     2.58    197     1.2  0.09   1.2   0.049   0.000   72.2    59   57.1   72.1  10.86  .0742    0.000   204    7    100.0   10 
 9/29/22  3:50p   58.2   58.2   57.9   100   58.2   2.0     W   0.33   4.0   WSW   58.2   58.6   58.6   61.5  30.225  0.00  0.00   159     2.28    174     1.0  0.07   1.1   0.047   0.000   72.4    59   57.3   72.4  10.85  .0742    0.000   204    7    100.0   10 
 9/29/22  4:00p   58.5   58.6   58.2   100   58.5   1.0     N   0.17   3.0     N   58.5   59.0   59.0   61.1  30.224  0.00  0.00   126     1.81    151     0.8  0.06   1.0   0.045   0.000   72.6    59   57.4   72.7  10.85  .0741    0.003   204    7    100.0   10 
 9/29/22  4:10p   58.5   58.5   58.4   100   58.5   1.0     N   0.17   3.0     N   58.5   59.0   59.0   60.7  30.225  0.00  0.00   111     1.59    114     0.6  0.04   0.7   0.045   0.000   72.7    59   57.5   72.9  10.84  .0741    0.000   202    7    100.0   10 
Email: AdamSPAM@StormwatchersRetreat.com (To send me email remove the word 'SPAM' from my email address.)